sensor_id;sensor_type;location;lat;lon;timestamp;P1;P2;P0
47711;PMS7003;57457;51.634;5.886;2022-10-20T00:05:22;7.45;9.93;4.48
47711;PMS7003;57457;51.634;5.886;2022-10-20T00:18:41;8.41;9.06;4.48
47711;PMS7003;57457;51.634;5.886;2022-10-20T00:32:01;8.05;10.04;4.48
47711;PMS7003;57457;51.634;5.886;2022-10-20T00:58:40;10.93;10.91;5.02
47711;PMS7003;57457;51.634;5.886;2022-10-20T01:12:00;9.25;11.24;4.91
47711;PMS7003;57457;51.634;5.886;2022-10-20T01:38:39;12.13;12.22;5.46
47711;PMS7003;57457;51.634;5.886;2022-10-20T01:51:59;11.05;12.0;5.46
47711;PMS7003;57457;51.634;5.886;2022-10-20T02:05:18;12.37;12.54;5.35
47711;PMS7003;57457;51.634;5.886;2022-10-20T02:18:38;10.57;12.22;5.35
47711;PMS7003;57457;51.634;5.886;2022-10-20T02:31:57;13.21;12.33;5.46
47711;PMS7003;57457;51.634;5.886;2022-10-20T02:45:17;11.05;11.24;5.24
47711;PMS7003;57457;51.634;5.886;2022-10-20T02:58:37;13.57;13.42;5.57
47711;PMS7003;57457;51.634;5.886;2022-10-20T03:11:56;11.65;13.09;5.68
47711;PMS7003;57457;51.634;5.886;2022-10-20T03:25:16;13.33;13.63;5.79
47711;PMS7003;57457;51.634;5.886;2022-10-20T03:51:55;11.53;13.63;5.9
47711;PMS7003;57457;51.634;5.886;2022-10-20T04:05:15;11.05;12.76;5.9
47711;PMS7003;57457;51.634;5.886;2022-10-20T04:18:34;12.37;14.18;6.11
47711;PMS7003;57457;51.634;5.886;2022-10-20T04:45:13;12.85;13.53;6.11
47711;PMS7003;57457;51.634;5.886;2022-10-20T04:58:33;13.81;14.18;5.9
47711;PMS7003;57457;51.634;5.886;2022-10-20T05:11:53;13.21;13.09;5.9
47711;PMS7003;57457;51.634;5.886;2022-10-20T05:38:32;12.61;12.54;5.79
47711;PMS7003;57457;51.634;5.886;2022-10-20T05:51:51;10.57;12.0;5.57
47711;PMS7003;57457;51.634;5.886;2022-10-20T06:18:31;10.93;12.33;5.13
47711;PMS7003;57457;51.634;5.886;2022-10-20T06:31:50;11.05;12.33;5.35
47711;PMS7003;57457;51.634;5.886;2022-10-20T06:45:10;10.09;12.0;5.13
47711;PMS7003;57457;51.634;5.886;2022-10-20T06:58:29;9.73;11.56;4.7
47711;PMS7003;57457;51.634;5.886;2022-10-20T07:11:49;8.65;11.13;5.24
47711;PMS7003;57457;51.634;5.886;2022-10-20T07:38:28;9.49;11.89;5.02
47711;PMS7003;57457;51.634;5.886;2022-10-20T08:05:07;9.73;10.69;5.35
47711;PMS7003;57457;51.634;5.886;2022-10-20T08:18:27;8.17;10.58;5.24
47711;PMS7003;57457;51.634;5.886;2022-10-20T08:31:47;9.37;11.13;5.13
47711;PMS7003;57457;51.634;5.886;2022-10-20T08:45:06;8.65;11.13;5.35
47711;PMS7003;57457;51.634;5.886;2022-10-20T08:58:26;11.17;11.78;5.46
47711;PMS7003;57457;51.634;5.886;2022-10-20T09:11:45;9.13;11.56;5.02
47711;PMS7003;57457;51.634;5.886;2022-10-20T09:25:05;11.41;12.0;5.9
47711;PMS7003;57457;51.634;5.886;2022-10-20T09:38:25;11.41;11.78;5.79
47711;PMS7003;57457;51.634;5.886;2022-10-20T09:51:44;9.25;11.35;5.68
47711;PMS7003;57457;51.634;5.886;2022-10-20T10:31:43;14.41;12.76;5.68
47711;PMS7003;57457;51.634;5.886;2022-10-20T10:45:03;11.05;12.11;5.35
47711;PMS7003;57457;51.634;5.886;2022-10-20T10:58:22;10.69;12.76;5.68
47711;PMS7003;57457;51.634;5.886;2022-10-20T11:11:42;13.45;13.63;6.0
47711;PMS7003;57457;51.634;5.886;2022-10-20T11:25:02;11.41;13.42;6.11
47711;PMS7003;57457;51.634;5.886;2022-10-20T11:38:21;9.97;12.22;5.57
47711;PMS7003;57457;51.634;5.886;2022-10-20T11:51:41;11.77;12.11;6.0
47711;PMS7003;57457;51.634;5.886;2022-10-20T12:18:20;12.49;13.96;6.33
47711;PMS7003;57457;51.634;5.886;2022-10-20T12:31:40;14.29;15.49;6.99
47711;PMS7003;57457;51.634;5.886;2022-10-20T12:44:59;14.17;15.27;6.88
47711;PMS7003;57457;51.634;5.886;2022-10-20T12:58:19;17.53;16.69;7.42
47711;PMS7003;57457;51.634;5.886;2022-10-20T13:38:18;15.61;16.8;7.42
47711;PMS7003;57457;51.634;5.886;2022-10-20T14:04:57;11.65;13.85;6.22
47711;PMS7003;57457;51.634;5.886;2022-10-20T14:18:17;15.25;14.29;6.33
47711;PMS7003;57457;51.634;5.886;2022-10-20T14:31:36;10.81;12.65;5.57
47711;PMS7003;57457;51.634;5.886;2022-10-20T14:44:56;12.97;13.2;6.11
47711;PMS7003;57457;51.634;5.886;2022-10-20T14:58:16;12.37;13.31;6.11
47711;PMS7003;57457;51.634;5.886;2022-10-20T15:24:55;11.77;13.42;6.0
47711;PMS7003;57457;51.634;5.886;2022-10-20T15:38:14;12.49;13.85;6.44
47711;PMS7003;57457;51.634;5.886;2022-10-20T15:51:34;14.65;14.07;6.44
47711;PMS7003;57457;51.634;5.886;2022-10-20T16:18:13;13.81;14.62;6.66
47711;PMS7003;57457;51.634;5.886;2022-10-20T16:31:33;13.57;15.16;6.55
47711;PMS7003;57457;51.634;5.886;2022-10-20T17:11:32;14.29;14.94;7.42
47711;PMS7003;57457;51.634;5.886;2022-10-20T17:24:51;14.65;15.92;7.09
47711;PMS7003;57457;51.634;5.886;2022-10-20T17:38:11;13.57;15.38;7.09
47711;PMS7003;57457;51.634;5.886;2022-10-20T17:51:31;16.81;15.49;6.66
47711;PMS7003;57457;51.634;5.886;2022-10-20T18:04:50;12.97;14.94;6.55
47711;PMS7003;57457;51.634;5.886;2022-10-20T18:18:10;16.09;16.03;6.99
47711;PMS7003;57457;51.634;5.886;2022-10-20T18:31:30;14.17;15.92;6.99
47711;PMS7003;57457;51.634;5.886;2022-10-20T18:44:49;15.73;16.25;7.64
47711;PMS7003;57457;51.634;5.886;2022-10-20T18:58:09;16.45;16.8;7.53
47711;PMS7003;57457;51.634;5.886;2022-10-20T19:11:28;14.77;16.25;7.31
47711;PMS7003;57457;51.634;5.886;2022-10-20T19:24:48;14.53;15.05;6.99
47711;PMS7003;57457;51.634;5.886;2022-10-20T19:38:08;12.73;14.29;6.99
47711;PMS7003;57457;51.634;5.886;2022-10-20T19:51:27;13.69;15.6;7.09
47711;PMS7003;57457;51.634;5.886;2022-10-20T20:04:47;15.37;16.9;7.75
47711;PMS7003;57457;51.634;5.886;2022-10-20T20:31:26;15.49;16.47;7.2
47711;PMS7003;57457;51.634;5.886;2022-10-20T20:44:46;16.45;17.45;7.75
47711;PMS7003;57457;51.634;5.886;2022-10-20T20:58:05;16.81;16.69;7.42
47711;PMS7003;57457;51.634;5.886;2022-10-20T21:11:25;15.13;16.58;7.64
47711;PMS7003;57457;51.634;5.886;2022-10-20T21:24:44;19.21;17.12;7.75
47711;PMS7003;57457;51.634;5.886;2022-10-20T21:38:04;18.01;17.34;7.64
47711;PMS7003;57457;51.634;5.886;2022-10-20T21:51:24;19.93;17.89;8.08
47711;PMS7003;57457;51.634;5.886;2022-10-20T22:18:03;16.93;17.12;7.31
47711;PMS7003;57457;51.634;5.886;2022-10-20T22:44:42;16.45;16.25;7.75
47711;PMS7003;57457;51.634;5.886;2022-10-20T22:58:02;16.57;17.01;7.42
47711;PMS7003;57457;51.634;5.886;2022-10-20T23:11:21;17.29;15.81;7.42
47711;PMS7003;57457;51.634;5.886;2022-10-20T23:24:41;17.41;16.03;6.99
47711;PMS7003;57457;51.634;5.886;2022-10-20T23:38:01;14.29;16.03;6.99
47711;PMS7003;57457;51.634;5.886;2022-10-20T23:51:20;14.53;16.03;6.99
